sensor_id;sensor_type;location;lat;lon;timestamp;temperature;humidity
39957;DHT22;48483;44.640;7.494;2022-09-21T00:01:14;18.10;68.60
39957;DHT22;48483;44.640;7.494;2022-09-21T00:03:42;18.10;68.70
39957;DHT22;48483;44.640;7.494;2022-09-21T00:06:11;18.00;68.80
39957;DHT22;48483;44.640;7.494;2022-09-21T00:08:38;18.00;68.80
39957;DHT22;48483;44.640;7.494;2022-09-21T00:11:06;18.00;68.70
39957;DHT22;48483;44.640;7.494;2022-09-21T00:13:34;18.00;68.80
39957;DHT22;48483;44.640;7.494;2022-09-21T00:16:04;18.00;69.00
39957;DHT22;48483;44.640;7.494;2022-09-21T00:18:31;18.10;68.80
39957;DHT22;48483;44.640;7.494;2022-09-21T00:20:58;18.00;68.80
39957;DHT22;48483;44.640;7.494;2022-09-21T00:23:24;18.00;68.90
39957;DHT22;48483;44.640;7.494;2022-09-21T00:25:52;18.00;68.90
39957;DHT22;48483;44.640;7.494;2022-09-21T00:28:19;18.00;69.00
39957;DHT22;48483;44.640;7.494;2022-09-21T00:30:46;18.00;69.00
39957;DHT22;48483;44.640;7.494;2022-09-21T00:33:17;18.00;69.00
39957;DHT22;48483;44.640;7.494;2022-09-21T00:35:43;17.90;68.90
39957;DHT22;48483;44.640;7.494;2022-09-21T00:38:10;17.90;68.90
39957;DHT22;48483;44.640;7.494;2022-09-21T00:40:36;17.90;69.10
39957;DHT22;48483;44.640;7.494;2022-09-21T00:43:13;17.90;69.20
39957;DHT22;48483;44.640;7.494;2022-09-21T00:45:43;17.90;69.30
39957;DHT22;48483;44.640;7.494;2022-09-21T00:48:12;17.90;69.40
39957;DHT22;48483;44.640;7.494;2022-09-21T00:50:45;17.90;69.40
39957;DHT22;48483;44.640;7.494;2022-09-21T00:53:14;17.90;69.70
39957;DHT22;48483;44.640;7.494;2022-09-21T00:55:44;17.90;69.80
39957;DHT22;48483;44.640;7.494;2022-09-21T00:58:14;17.90;70.10
39957;DHT22;48483;44.640;7.494;2022-09-21T01:00:44;17.80;70.20
39957;DHT22;48483;44.640;7.494;2022-09-21T01:03:12;17.90;70.20
39957;DHT22;48483;44.640;7.494;2022-09-21T01:05:38;17.80;70.20
39957;DHT22;48483;44.640;7.494;2022-09-21T01:08:06;17.90;70.30
39957;DHT22;48483;44.640;7.494;2022-09-21T01:10:44;17.80;70.30
39957;DHT22;48483;44.640;7.494;2022-09-21T01:13:21;17.80;70.30
39957;DHT22;48483;44.640;7.494;2022-09-21T01:15:59;17.80;70.40
39957;DHT22;48483;44.640;7.494;2022-09-21T01:18:35;17.80;70.50
39957;DHT22;48483;44.640;7.494;2022-09-21T01:21:20;17.80;70.80
39957;DHT22;48483;44.640;7.494;2022-09-21T01:27:25;17.80;71.00
39957;DHT22;48483;44.640;7.494;2022-09-21T01:29:59;17.80;71.10
39957;DHT22;48483;44.640;7.494;2022-09-21T01:32:31;17.80;71.00
39957;DHT22;48483;44.640;7.494;2022-09-21T01:35:03;17.80;71.30
39957;DHT22;48483;44.640;7.494;2022-09-21T01:37:36;17.70;71.50
39957;DHT22;48483;44.640;7.494;2022-09-21T01:40:07;17.70;71.60
39957;DHT22;48483;44.640;7.494;2022-09-21T01:42:38;17.70;71.80
39957;DHT22;48483;44.640;7.494;2022-09-21T01:45:08;17.70;71.80
39957;DHT22;48483;44.640;7.494;2022-09-21T01:47:38;17.70;71.80
39957;DHT22;48483;44.640;7.494;2022-09-21T01:50:08;17.70;71.90
39957;DHT22;48483;44.640;7.494;2022-09-21T01:52:39;17.70;71.90
39957;DHT22;48483;44.640;7.494;2022-09-21T01:55:08;17.70;73.20
39957;DHT22;48483;44.640;7.494;2022-09-21T01:57:40;17.50;76.10
39957;DHT22;48483;44.640;7.494;2022-09-21T02:00:11;17.40;77.30
39957;DHT22;48483;44.640;7.494;2022-09-21T02:02:43;17.30;78.30
39957;DHT22;48483;44.640;7.494;2022-09-21T02:05:12;17.20;78.70
39957;DHT22;48483;44.640;7.494;2022-09-21T02:07:42;17.10;79.50
39957;DHT22;48483;44.640;7.494;2022-09-21T02:10:17;17.00;80.70
39957;DHT22;48483;44.640;7.494;2022-09-21T02:12:46;16.90;81.70
39957;DHT22;48483;44.640;7.494;2022-09-21T02:15:15;16.80;82.80
39957;DHT22;48483;44.640;7.494;2022-09-21T02:17:46;16.70;83.40
39957;DHT22;48483;44.640;7.494;2022-09-21T02:20:19;16.70;84.00
39957;DHT22;48483;44.640;7.494;2022-09-21T02:22:58;16.70;83.80
39957;DHT22;48483;44.640;7.494;2022-09-21T02:25:37;16.70;84.10
39957;DHT22;48483;44.640;7.494;2022-09-21T02:28:09;16.70;84.50
39957;DHT22;48483;44.640;7.494;2022-09-21T02:30:40;16.70;85.10
39957;DHT22;48483;44.640;7.494;2022-09-21T02:33:11;16.60;85.50
39957;DHT22;48483;44.640;7.494;2022-09-21T02:35:44;16.60;85.50
39957;DHT22;48483;44.640;7.494;2022-09-21T02:38:18;16.60;85.20
39957;DHT22;48483;44.640;7.494;2022-09-21T02:40:51;16.70;84.90
39957;DHT22;48483;44.640;7.494;2022-09-21T02:43:25;16.80;83.90
39957;DHT22;48483;44.640;7.494;2022-09-21T02:45:58;16.80;82.10
39957;DHT22;48483;44.640;7.494;2022-09-21T02:48:30;16.90;80.60
39957;DHT22;48483;44.640;7.494;2022-09-21T02:51:02;17.00;79.60
39957;DHT22;48483;44.640;7.494;2022-09-21T02:53:33;17.00;79.00
39957;DHT22;48483;44.640;7.494;2022-09-21T02:56:03;17.10;78.80
39957;DHT22;48483;44.640;7.494;2022-09-21T02:58:34;17.10;78.40
39957;DHT22;48483;44.640;7.494;2022-09-21T03:01:05;17.10;78.20
39957;DHT22;48483;44.640;7.494;2022-09-21T03:03:33;17.10;78.00
39957;DHT22;48483;44.640;7.494;2022-09-21T03:05:59;17.20;77.90
39957;DHT22;48483;44.640;7.494;2022-09-21T03:08:27;17.20;77.90
39957;DHT22;48483;44.640;7.494;2022-09-21T03:10:54;17.20;78.10
39957;DHT22;48483;44.640;7.494;2022-09-21T03:13:21;17.10;80.70
39957;DHT22;48483;44.640;7.494;2022-09-21T03:15:47;17.00;82.70
39957;DHT22;48483;44.640;7.494;2022-09-21T03:18:15;16.90;83.60
39957;DHT22;48483;44.640;7.494;2022-09-21T03:20:43;16.70;84.50
39957;DHT22;48483;44.640;7.494;2022-09-21T03:23:13;16.70;85.20
39957;DHT22;48483;44.640;7.494;2022-09-21T03:25:43;16.70;85.30
39957;DHT22;48483;44.640;7.494;2022-09-21T03:28:10;16.70;85.40
39957;DHT22;48483;44.640;7.494;2022-09-21T03:30:39;16.60;85.50
39957;DHT22;48483;44.640;7.494;2022-09-21T03:33:06;16.70;84.30
39957;DHT22;48483;44.640;7.494;2022-09-21T03:35:34;16.80;82.20
39957;DHT22;48483;44.640;7.494;2022-09-21T03:38:01;16.80;81.30
39957;DHT22;48483;44.640;7.494;2022-09-21T03:40:28;16.80;81.60
39957;DHT22;48483;44.640;7.494;2022-09-21T03:42:55;16.90;80.80
39957;DHT22;48483;44.640;7.494;2022-09-21T03:45:21;16.90;80.70
39957;DHT22;48483;44.640;7.494;2022-09-21T03:47:48;17.00;80.50
39957;DHT22;48483;44.640;7.494;2022-09-21T03:50:15;17.00;80.40
39957;DHT22;48483;44.640;7.494;2022-09-21T03:52:43;17.00;80.60
39957;DHT22;48483;44.640;7.494;2022-09-21T03:55:09;17.00;80.70
39957;DHT22;48483;44.640;7.494;2022-09-21T03:57:36;17.00;80.90
39957;DHT22;48483;44.640;7.494;2022-09-21T04:00:06;17.00;81.10
39957;DHT22;48483;44.640;7.494;2022-09-21T04:02:34;17.00;81.00
39957;DHT22;48483;44.640;7.494;2022-09-21T04:05:01;17.00;80.80
39957;DHT22;48483;44.640;7.494;2022-09-21T04:07:30;17.00;80.80
39957;DHT22;48483;44.640;7.494;2022-09-21T04:10:01;17.00;80.60
39957;DHT22;48483;44.640;7.494;2022-09-21T04:12:28;17.00;80.60
39957;DHT22;48483;44.640;7.494;2022-09-21T04:14:55;17.10;80.80
39957;DHT22;48483;44.640;7.494;2022-09-21T04:17:21;17.00;80.80
39957;DHT22;48483;44.640;7.494;2022-09-21T04:19:48;17.00;81.10
39957;DHT22;48483;44.640;7.494;2022-09-21T04:22:14;16.90;81.30
39957;DHT22;48483;44.640;7.494;2022-09-21T04:24:41;17.00;81.60
39957;DHT22;48483;44.640;7.494;2022-09-21T04:27:10;16.90;81.90
39957;DHT22;48483;44.640;7.494;2022-09-21T04:29:37;16.90;82.10
39957;DHT22;48483;44.640;7.494;2022-09-21T04:32:05;16.90;82.30
39957;DHT22;48483;44.640;7.494;2022-09-21T04:34:31;16.90;82.30
39957;DHT22;48483;44.640;7.494;2022-09-21T04:36:58;16.90;82.40
39957;DHT22;48483;44.640;7.494;2022-09-21T04:39:25;16.80;82.60
39957;DHT22;48483;44.640;7.494;2022-09-21T04:41:51;16.80;83.00
39957;DHT22;48483;44.640;7.494;2022-09-21T04:44:19;16.80;83.50
39957;DHT22;48483;44.640;7.494;2022-09-21T04:46:46;16.80;83.70
39957;DHT22;48483;44.640;7.494;2022-09-21T04:49:13;16.70;83.80
39957;DHT22;48483;44.640;7.494;2022-09-21T04:51:39;16.70;83.80
39957;DHT22;48483;44.640;7.494;2022-09-21T04:54:06;16.80;83.90
39957;DHT22;48483;44.640;7.494;2022-09-21T04:56:33;16.70;84.30
39957;DHT22;48483;44.640;7.494;2022-09-21T04:59:00;16.70;84.50
39957;DHT22;48483;44.640;7.494;2022-09-21T05:01:28;16.60;84.80
39957;DHT22;48483;44.640;7.494;2022-09-21T05:03:55;16.70;84.80
39957;DHT22;48483;44.640;7.494;2022-09-21T05:06:27;16.70;84.90
39957;DHT22;48483;44.640;7.494;2022-09-21T05:08:54;16.70;85.00
39957;DHT22;48483;44.640;7.494;2022-09-21T05:11:39;16.70;85.20
39957;DHT22;48483;44.640;7.494;2022-09-21T05:14:06;16.70;85.50
39957;DHT22;48483;44.640;7.494;2022-09-21T05:16:35;16.70;85.50
39957;DHT22;48483;44.640;7.494;2022-09-21T05:19:02;16.70;85.80
39957;DHT22;48483;44.640;7.494;2022-09-21T05:21:29;16.70;85.80
39957;DHT22;48483;44.640;7.494;2022-09-21T05:23:56;16.70;85.70
39957;DHT22;48483;44.640;7.494;2022-09-21T05:26:24;16.70;85.70
39957;DHT22;48483;44.640;7.494;2022-09-21T05:28:51;16.70;86.10
39957;DHT22;48483;44.640;7.494;2022-09-21T05:31:33;16.70;86.30
39957;DHT22;48483;44.640;7.494;2022-09-21T05:34:12;16.70;86.50
39957;DHT22;48483;44.640;7.494;2022-09-21T05:36:46;16.70;86.20
39957;DHT22;48483;44.640;7.494;2022-09-21T05:39:15;16.70;86.20
39957;DHT22;48483;44.640;7.494;2022-09-21T05:41:42;16.80;86.50
39957;DHT22;48483;44.640;7.494;2022-09-21T05:44:12;16.80;86.50
39957;DHT22;48483;44.640;7.494;2022-09-21T05:46:41;16.80;86.40
39957;DHT22;48483;44.640;7.494;2022-09-21T05:49:16;16.80;87.10
39957;DHT22;48483;44.640;7.494;2022-09-21T05:51:53;16.80;87.30
39957;DHT22;48483;44.640;7.494;2022-09-21T05:54:30;16.80;87.30
39957;DHT22;48483;44.640;7.494;2022-09-21T05:57:04;16.90;87.10
39957;DHT22;48483;44.640;7.494;2022-09-21T05:59:47;16.90;87.50
39957;DHT22;48483;44.640;7.494;2022-09-21T06:02:25;16.90;87.70
39957;DHT22;48483;44.640;7.494;2022-09-21T06:04:56;16.90;87.90
39957;DHT22;48483;44.640;7.494;2022-09-21T06:07:24;17.00;87.80
39957;DHT22;48483;44.640;7.494;2022-09-21T06:09:51;16.90;87.60
39957;DHT22;48483;44.640;7.494;2022-09-21T06:12:18;16.90;88.30
39957;DHT22;48483;44.640;7.494;2022-09-21T06:14:44;16.90;88.70
39957;DHT22;48483;44.640;7.494;2022-09-21T06:17:11;17.00;88.70
39957;DHT22;48483;44.640;7.494;2022-09-21T06:19:38;17.00;88.80
39957;DHT22;48483;44.640;7.494;2022-09-21T06:22:06;17.00;88.80
39957;DHT22;48483;44.640;7.494;2022-09-21T06:24:32;16.90;89.60
39957;DHT22;48483;44.640;7.494;2022-09-21T06:26:59;17.00;89.20
39957;DHT22;48483;44.640;7.494;2022-09-21T06:29:26;17.00;89.40
39957;DHT22;48483;44.640;7.494;2022-09-21T06:31:52;17.00;89.90
39957;DHT22;48483;44.640;7.494;2022-09-21T06:34:19;17.00;89.70
39957;DHT22;48483;44.640;7.494;2022-09-21T06:36:45;17.00;89.80
39957;DHT22;48483;44.640;7.494;2022-09-21T06:39:13;17.00;89.90
39957;DHT22;48483;44.640;7.494;2022-09-21T06:41:40;17.00;90.10
39957;DHT22;48483;44.640;7.494;2022-09-21T06:44:10;16.90;90.20
39957;DHT22;48483;44.640;7.494;2022-09-21T06:46:37;17.00;90.40
39957;DHT22;48483;44.640;7.494;2022-09-21T06:49:03;17.00;90.30
39957;DHT22;48483;44.640;7.494;2022-09-21T06:51:30;17.00;90.30
39957;DHT22;48483;44.640;7.494;2022-09-21T06:53:57;17.00;90.20
39957;DHT22;48483;44.640;7.494;2022-09-21T06:56:25;17.00;90.20
39957;DHT22;48483;44.640;7.494;2022-09-21T06:58:52;17.00;90.40
39957;DHT22;48483;44.640;7.494;2022-09-21T07:01:19;16.90;90.40
39957;DHT22;48483;44.640;7.494;2022-09-21T07:03:48;16.90;90.70
39957;DHT22;48483;44.640;7.494;2022-09-21T07:06:16;16.90;90.90
39957;DHT22;48483;44.640;7.494;2022-09-21T07:08:43;16.90;91.20
39957;DHT22;48483;44.640;7.494;2022-09-21T07:11:11;16.90;91.10
39957;DHT22;48483;44.640;7.494;2022-09-21T07:13:40;16.90;91.30
39957;DHT22;48483;44.640;7.494;2022-09-21T07:16:08;16.90;91.50
39957;DHT22;48483;44.640;7.494;2022-09-21T07:18:35;16.90;91.60
39957;DHT22;48483;44.640;7.494;2022-09-21T07:21:02;16.90;91.60
39957;DHT22;48483;44.640;7.494;2022-09-21T07:23:29;16.90;91.60
39957;DHT22;48483;44.640;7.494;2022-09-21T07:26:00;16.90;91.80
39957;DHT22;48483;44.640;7.494;2022-09-21T07:28:27;16.90;91.70
39957;DHT22;48483;44.640;7.494;2022-09-21T07:30:55;16.90;91.90
39957;DHT22;48483;44.640;7.494;2022-09-21T07:33:23;16.90;92.10
39957;DHT22;48483;44.640;7.494;2022-09-21T07:35:51;16.90;92.40
39957;DHT22;48483;44.640;7.494;2022-09-21T07:38:18;16.80;92.80
39957;DHT22;48483;44.640;7.494;2022-09-21T07:40:44;16.90;93.00
39957;DHT22;48483;44.640;7.494;2022-09-21T07:43:11;16.90;93.30
39957;DHT22;48483;44.640;7.494;2022-09-21T07:45:38;16.80;93.00
39957;DHT22;48483;44.640;7.494;2022-09-21T07:48:07;16.80;93.20
39957;DHT22;48483;44.640;7.494;2022-09-21T07:50:36;16.90;93.40
39957;DHT22;48483;44.640;7.494;2022-09-21T07:53:03;17.00;93.30
39957;DHT22;48483;44.640;7.494;2022-09-21T07:55:31;16.90;93.30
39957;DHT22;48483;44.640;7.494;2022-09-21T07:57:57;16.90;93.50
39957;DHT22;48483;44.640;7.494;2022-09-21T08:00:43;16.90;93.90
39957;DHT22;48483;44.640;7.494;2022-09-21T08:03:11;16.90;94.00
39957;DHT22;48483;44.640;7.494;2022-09-21T08:05:38;17.00;94.20
39957;DHT22;48483;44.640;7.494;2022-09-21T08:08:04;17.00;94.30
39957;DHT22;48483;44.640;7.494;2022-09-21T08:10:31;17.10;94.30
39957;DHT22;48483;44.640;7.494;2022-09-21T08:12:58;17.00;94.20
39957;DHT22;48483;44.640;7.494;2022-09-21T08:15:25;16.90;94.50
39957;DHT22;48483;44.640;7.494;2022-09-21T08:17:52;17.00;94.70
39957;DHT22;48483;44.640;7.494;2022-09-21T08:20:20;17.00;94.30
39957;DHT22;48483;44.640;7.494;2022-09-21T08:22:47;17.00;94.30
39957;DHT22;48483;44.640;7.494;2022-09-21T08:25:18;17.10;94.40
39957;DHT22;48483;44.640;7.494;2022-09-21T08:27:44;17.10;94.40
39957;DHT22;48483;44.640;7.494;2022-09-21T08:30:12;17.10;94.70
39957;DHT22;48483;44.640;7.494;2022-09-21T08:32:39;17.10;95.10
39957;DHT22;48483;44.640;7.494;2022-09-21T08:35:07;17.20;95.40
39957;DHT22;48483;44.640;7.494;2022-09-21T08:37:35;17.20;95.90
39957;DHT22;48483;44.640;7.494;2022-09-21T08:40:04;17.10;96.20
39957;DHT22;48483;44.640;7.494;2022-09-21T08:42:39;17.20;96.50
39957;DHT22;48483;44.640;7.494;2022-09-21T08:45:12;17.20;96.80
39957;DHT22;48483;44.640;7.494;2022-09-21T08:47:42;17.20;97.20
39957;DHT22;48483;44.640;7.494;2022-09-21T08:50:25;17.20;96.90
39957;DHT22;48483;44.640;7.494;2022-09-21T08:52:59;17.10;96.60
39957;DHT22;48483;44.640;7.494;2022-09-21T08:55:27;17.10;97.20
39957;DHT22;48483;44.640;7.494;2022-09-21T08:57:53;17.10;96.80
39957;DHT22;48483;44.640;7.494;2022-09-21T09:00:20;17.10;96.90
39957;DHT22;48483;44.640;7.494;2022-09-21T09:03:15;17.10;97.00
39957;DHT22;48483;44.640;7.494;2022-09-21T09:05:47;17.00;97.10
39957;DHT22;48483;44.640;7.494;2022-09-21T09:08:44;17.00;97.20
39957;DHT22;48483;44.640;7.494;2022-09-21T09:11:26;17.00;97.50
39957;DHT22;48483;44.640;7.494;2022-09-21T09:14:24;16.90;97.80
39957;DHT22;48483;44.640;7.494;2022-09-21T09:17:08;16.90;98.20
39957;DHT22;48483;44.640;7.494;2022-09-21T09:19:48;16.90;98.80
39957;DHT22;48483;44.640;7.494;2022-09-21T09:22:20;16.60;99.90
39957;DHT22;48483;44.640;7.494;2022-09-21T09:24:51;16.50;99.90
39957;DHT22;48483;44.640;7.494;2022-09-21T09:27:22;16.40;99.90
39957;DHT22;48483;44.640;7.494;2022-09-21T09:29:56;16.30;99.90
39957;DHT22;48483;44.640;7.494;2022-09-21T09:32:27;16.40;99.90
39957;DHT22;48483;44.640;7.494;2022-09-21T09:35:01;16.40;99.90
39957;DHT22;48483;44.640;7.494;2022-09-21T09:37:33;16.30;99.90
39957;DHT22;48483;44.640;7.494;2022-09-21T09:40:05;16.10;99.90
39957;DHT22;48483;44.640;7.494;2022-09-21T09:42:50;16.00;99.90
39957;DHT22;48483;44.640;7.494;2022-09-21T09:45:35;16.00;99.90
39957;DHT22;48483;44.640;7.494;2022-09-21T09:48:26;16.10;99.90
39957;DHT22;48483;44.640;7.494;2022-09-21T09:50:55;16.20;99.90
39957;DHT22;48483;44.640;7.494;2022-09-21T09:53:24;16.30;99.90
39957;DHT22;48483;44.640;7.494;2022-09-21T09:55:54;16.30;99.90
39957;DHT22;48483;44.640;7.494;2022-09-21T09:58:24;16.30;99.90
39957;DHT22;48483;44.640;7.494;2022-09-21T10:00:54;16.20;99.90
39957;DHT22;48483;44.640;7.494;2022-09-21T10:03:23;16.20;99.90
39957;DHT22;48483;44.640;7.494;2022-09-21T10:05:50;16.10;99.90
39957;DHT22;48483;44.640;7.494;2022-09-21T10:08:41;16.10;99.90
39957;DHT22;48483;44.640;7.494;2022-09-21T10:11:10;15.80;99.90
39957;DHT22;48483;44.640;7.494;2022-09-21T10:13:38;15.90;99.90
39957;DHT22;48483;44.640;7.494;2022-09-21T10:16:12;16.00;99.90
39957;DHT22;48483;44.640;7.494;2022-09-21T10:18:44;16.10;99.90
39957;DHT22;48483;44.640;7.494;2022-09-21T10:21:17;16.20;99.90
39957;DHT22;48483;44.640;7.494;2022-09-21T10:23:48;16.20;99.90
39957;DHT22;48483;44.640;7.494;2022-09-21T10:26:17;16.20;99.90
39957;DHT22;48483;44.640;7.494;2022-09-21T10:28:56;16.20;99.90
39957;DHT22;48483;44.640;7.494;2022-09-21T10:31:24;16.20;99.90
39957;DHT22;48483;44.640;7.494;2022-09-21T10:33:54;16.20;99.90
39957;DHT22;48483;44.640;7.494;2022-09-21T10:36:32;16.20;99.90
39957;DHT22;48483;44.640;7.494;2022-09-21T10:39:14;16.20;99.90
39957;DHT22;48483;44.640;7.494;2022-09-21T10:41:47;16.20;99.90
39957;DHT22;48483;44.640;7.494;2022-09-21T10:44:16;16.20;99.90
39957;DHT22;48483;44.640;7.494;2022-09-21T10:46:44;16.20;99.90
39957;DHT22;48483;44.640;7.494;2022-09-21T10:49:18;16.20;99.90
39957;DHT22;48483;44.640;7.494;2022-09-21T10:51:47;16.10;99.90
39957;DHT22;48483;44.640;7.494;2022-09-21T10:54:18;16.00;99.90
39957;DHT22;48483;44.640;7.494;2022-09-21T10:56:53;15.90;99.90
39957;DHT22;48483;44.640;7.494;2022-09-21T10:59:23;15.90;99.90
39957;DHT22;48483;44.640;7.494;2022-09-21T11:01:52;15.80;99.90
39957;DHT22;48483;44.640;7.494;2022-09-21T11:07:15;15.80;99.90
39957;DHT22;48483;44.640;7.494;2022-09-21T11:09:49;15.70;99.90
39957;DHT22;48483;44.640;7.494;2022-09-21T11:12:33;15.80;99.90
39957;DHT22;48483;44.640;7.494;2022-09-21T11:15:11;15.90;99.90
39957;DHT22;48483;44.640;7.494;2022-09-21T11:17:44;15.90;99.90
39957;DHT22;48483;44.640;7.494;2022-09-21T11:20:20;15.70;99.90
39957;DHT22;48483;44.640;7.494;2022-09-21T11:22:55;15.80;99.90
39957;DHT22;48483;44.640;7.494;2022-09-21T11:25:30;15.90;99.90
39957;DHT22;48483;44.640;7.494;2022-09-21T11:28:09;15.90;99.90
39957;DHT22;48483;44.640;7.494;2022-09-21T11:30:53;15.90;99.90
39957;DHT22;48483;44.640;7.494;2022-09-21T11:33:33;15.90;99.90
39957;DHT22;48483;44.640;7.494;2022-09-21T11:36:07;16.00;99.90
39957;DHT22;48483;44.640;7.494;2022-09-21T11:38:47;15.90;99.90
39957;DHT22;48483;44.640;7.494;2022-09-21T11:44:38;16.00;99.90
39957;DHT22;48483;44.640;7.494;2022-09-21T11:47:14;15.90;99.90
39957;DHT22;48483;44.640;7.494;2022-09-21T11:52:44;16.00;99.90
39957;DHT22;48483;44.640;7.494;2022-09-21T11:55:24;16.00;99.90
39957;DHT22;48483;44.640;7.494;2022-09-21T11:57:57;16.00;99.90
39957;DHT22;48483;44.640;7.494;2022-09-21T12:00:32;16.00;99.90
39957;DHT22;48483;44.640;7.494;2022-09-21T12:03:20;15.90;99.90
39957;DHT22;48483;44.640;7.494;2022-09-21T12:06:05;15.90;99.90
39957;DHT22;48483;44.640;7.494;2022-09-21T12:08:54;15.80;99.90
39957;DHT22;48483;44.640;7.494;2022-09-21T12:11:32;15.80;99.90
39957;DHT22;48483;44.640;7.494;2022-09-21T12:14:06;15.90;99.90
39957;DHT22;48483;44.640;7.494;2022-09-21T12:16:43;15.90;99.90
39957;DHT22;48483;44.640;7.494;2022-09-21T12:19:18;16.00;99.90
39957;DHT22;48483;44.640;7.494;2022-09-21T12:21:49;16.00;99.90
39957;DHT22;48483;44.640;7.494;2022-09-21T12:24:20;15.80;99.90
39957;DHT22;48483;44.640;7.494;2022-09-21T12:26:52;15.60;99.90
39957;DHT22;48483;44.640;7.494;2022-09-21T12:29:25;15.70;99.90
39957;DHT22;48483;44.640;7.494;2022-09-21T12:32:02;15.90;99.90
39957;DHT22;48483;44.640;7.494;2022-09-21T12:34:36;16.00;99.90
39957;DHT22;48483;44.640;7.494;2022-09-21T12:37:09;16.00;99.90
39957;DHT22;48483;44.640;7.494;2022-09-21T12:39:41;16.00;99.90
39957;DHT22;48483;44.640;7.494;2022-09-21T12:42:20;16.10;99.90
39957;DHT22;48483;44.640;7.494;2022-09-21T12:44:51;16.00;99.90
39957;DHT22;48483;44.640;7.494;2022-09-21T12:47:25;15.80;99.90
39957;DHT22;48483;44.640;7.494;2022-09-21T12:49:57;15.80;99.90
39957;DHT22;48483;44.640;7.494;2022-09-21T12:52:25;15.90;99.90
39957;DHT22;48483;44.640;7.494;2022-09-21T12:54:57;16.00;99.90
39957;DHT22;48483;44.640;7.494;2022-09-21T12:57:33;16.00;99.90
39957;DHT22;48483;44.640;7.494;2022-09-21T13:00:05;16.10;99.90
39957;DHT22;48483;44.640;7.494;2022-09-21T13:02:39;16.20;99.90
39957;DHT22;48483;44.640;7.494;2022-09-21T13:05:13;16.10;99.90
39957;DHT22;48483;44.640;7.494;2022-09-21T13:07:59;16.20;99.90
39957;DHT22;48483;44.640;7.494;2022-09-21T13:10:41;16.10;99.90
39957;DHT22;48483;44.640;7.494;2022-09-21T13:13:18;16.00;99.90
39957;DHT22;48483;44.640;7.494;2022-09-21T13:15:47;16.10;99.90
39957;DHT22;48483;44.640;7.494;2022-09-21T13:18:22;16.20;99.90
39957;DHT22;48483;44.640;7.494;2022-09-21T13:20:51;16.20;99.90
39957;DHT22;48483;44.640;7.494;2022-09-21T13:23:25;16.30;99.90
39957;DHT22;48483;44.640;7.494;2022-09-21T13:26:01;16.30;99.90
39957;DHT22;48483;44.640;7.494;2022-09-21T13:31:42;16.30;99.90
39957;DHT22;48483;44.640;7.494;2022-09-21T13:34:27;16.30;99.90
39957;DHT22;48483;44.640;7.494;2022-09-21T13:37:22;16.20;99.90
39957;DHT22;48483;44.640;7.494;2022-09-21T13:42:46;16.30;99.90
39957;DHT22;48483;44.640;7.494;2022-09-21T13:45:47;16.50;99.90
39957;DHT22;48483;44.640;7.494;2022-09-21T13:48:18;16.60;99.90
39957;DHT22;48483;44.640;7.494;2022-09-21T13:50:55;16.60;99.90
39957;DHT22;48483;44.640;7.494;2022-09-21T13:53:28;16.60;99.90
39957;DHT22;48483;44.640;7.494;2022-09-21T13:56:00;16.60;99.90
39957;DHT22;48483;44.640;7.494;2022-09-21T13:58:33;16.60;99.90
39957;DHT22;48483;44.640;7.494;2022-09-21T14:01:02;16.60;99.90
39957;DHT22;48483;44.640;7.494;2022-09-21T14:03:33;16.60;99.90
39957;DHT22;48483;44.640;7.494;2022-09-21T14:06:08;16.80;99.90
39957;DHT22;48483;44.640;7.494;2022-09-21T14:08:39;16.70;99.90
39957;DHT22;48483;44.640;7.494;2022-09-21T14:11:09;16.70;99.90
39957;DHT22;48483;44.640;7.494;2022-09-21T14:13:43;16.70;99.90
39957;DHT22;48483;44.640;7.494;2022-09-21T14:16:48;16.70;99.90
39957;DHT22;48483;44.640;7.494;2022-09-21T14:22:34;16.80;99.90
39957;DHT22;48483;44.640;7.494;2022-09-21T14:25:46;16.90;99.90
39957;DHT22;48483;44.640;7.494;2022-09-21T14:28:15;16.90;99.90
39957;DHT22;48483;44.640;7.494;2022-09-21T14:30:50;16.90;99.90
39957;DHT22;48483;44.640;7.494;2022-09-21T14:33:27;16.80;99.90
39957;DHT22;48483;44.640;7.494;2022-09-21T14:35:56;16.80;99.90
39957;DHT22;48483;44.640;7.494;2022-09-21T14:38:27;16.80;99.90
39957;DHT22;48483;44.640;7.494;2022-09-21T14:40:58;16.90;99.90
39957;DHT22;48483;44.640;7.494;2022-09-21T14:43:29;16.80;99.90
39957;DHT22;48483;44.640;7.494;2022-09-21T14:46:19;16.90;99.90
39957;DHT22;48483;44.640;7.494;2022-09-21T14:48:58;16.80;99.90
39957;DHT22;48483;44.640;7.494;2022-09-21T14:51:36;16.70;99.90
39957;DHT22;48483;44.640;7.494;2022-09-21T14:54:33;16.80;99.90
39957;DHT22;48483;44.640;7.494;2022-09-21T14:57:14;16.90;99.90
39957;DHT22;48483;44.640;7.494;2022-09-21T14:59:59;16.90;99.90
39957;DHT22;48483;44.640;7.494;2022-09-21T15:02:31;17.00;99.90
39957;DHT22;48483;44.640;7.494;2022-09-21T15:05:14;17.00;99.90
39957;DHT22;48483;44.640;7.494;2022-09-21T15:07:47;16.90;99.90
39957;DHT22;48483;44.640;7.494;2022-09-21T15:10:35;16.90;99.90
39957;DHT22;48483;44.640;7.494;2022-09-21T15:13:31;17.00;99.90
39957;DHT22;48483;44.640;7.494;2022-09-21T15:16:16;17.00;99.90
39957;DHT22;48483;44.640;7.494;2022-09-21T15:18:44;17.00;99.90
39957;DHT22;48483;44.640;7.494;2022-09-21T15:21:20;17.00;99.90
39957;DHT22;48483;44.640;7.494;2022-09-21T15:23:47;17.00;99.90
39957;DHT22;48483;44.640;7.494;2022-09-21T15:26:22;17.00;99.90
39957;DHT22;48483;44.640;7.494;2022-09-21T15:28:56;17.00;99.90
39957;DHT22;48483;44.640;7.494;2022-09-21T15:31:25;17.00;99.90
39957;DHT22;48483;44.640;7.494;2022-09-21T15:33:56;17.00;99.90
39957;DHT22;48483;44.640;7.494;2022-09-21T15:36:26;16.90;99.90
39957;DHT22;48483;44.640;7.494;2022-09-21T15:38:54;16.90;99.90
39957;DHT22;48483;44.640;7.494;2022-09-21T15:44:13;16.90;99.90
39957;DHT22;48483;44.640;7.494;2022-09-21T15:46:45;16.90;99.90
39957;DHT22;48483;44.640;7.494;2022-09-21T15:49:14;16.90;99.90
39957;DHT22;48483;44.640;7.494;2022-09-21T15:51:48;16.90;99.90
39957;DHT22;48483;44.640;7.494;2022-09-21T15:54:28;16.90;99.90
39957;DHT22;48483;44.640;7.494;2022-09-21T15:56:58;16.90;99.90
39957;DHT22;48483;44.640;7.494;2022-09-21T15:59:27;16.90;99.90
39957;DHT22;48483;44.640;7.494;2022-09-21T16:01:56;16.90;99.90
39957;DHT22;48483;44.640;7.494;2022-09-21T16:04:25;16.90;99.90
39957;DHT22;48483;44.640;7.494;2022-09-21T16:07:01;16.90;99.90
39957;DHT22;48483;44.640;7.494;2022-09-21T16:09:39;16.90;99.90
39957;DHT22;48483;44.640;7.494;2022-09-21T16:12:30;16.90;99.90
39957;DHT22;48483;44.640;7.494;2022-09-21T16:15:04;16.90;99.90
39957;DHT22;48483;44.640;7.494;2022-09-21T16:17:35;16.90;99.90
39957;DHT22;48483;44.640;7.494;2022-09-21T16:20:10;16.80;99.90
39957;DHT22;48483;44.640;7.494;2022-09-21T16:22:42;16.90;99.90
39957;DHT22;48483;44.640;7.494;2022-09-21T16:25:23;16.90;99.90